createdAt,value
2022-10-29T00:02:16.508Z,1.10
2022-10-29T00:04:42.814Z,0.85
2022-10-29T00:07:09.113Z,1.40
2022-10-29T00:09:35.557Z,0.93
2022-10-29T00:12:01.907Z,0.90
2022-10-29T00:14:28.458Z,1.52
2022-10-29T00:16:57.202Z,1.17
2022-10-29T00:19:23.611Z,1.17
2022-10-29T00:21:51.041Z,0.90
2022-10-29T00:24:17.637Z,1.02
2022-10-29T00:26:44.034Z,0.73
2022-10-29T00:29:10.369Z,1.20
2022-10-29T00:31:36.795Z,1.38
2022-10-29T00:34:03.182Z,0.80
2022-10-29T00:36:30.271Z,0.80
2022-10-29T00:38:57.047Z,1.20
2022-10-29T00:41:26.839Z,1.33
2022-10-29T00:44:18.806Z,1.10
2022-10-29T00:46:49.877Z,1.20
2022-10-29T00:49:17.409Z,1.30
2022-10-29T00:51:45.844Z,1.23
2022-10-29T00:54:15.006Z,0.75
2022-10-29T00:57:06.603Z,1.00
2022-10-29T00:59:33.154Z,1.50
2022-10-29T01:01:59.518Z,1.30
2022-10-29T01:04:26.122Z,0.80
2022-10-29T01:06:53.183Z,1.02
2022-10-29T01:09:19.500Z,1.75
2022-10-29T01:12:01.033Z,1.37
2022-10-29T01:15:03.745Z,1.48
2022-10-29T01:17:33.005Z,1.98
2022-10-29T01:20:23.124Z,1.60
2022-10-29T01:23:20.222Z,2.38
2022-10-29T01:26:07.874Z,1.43
2022-10-29T01:29:01.445Z,1.30
2022-10-29T01:31:37.860Z,1.60
2022-10-29T01:34:13.383Z,1.60
2022-10-29T01:37:01.299Z,1.63
2022-10-29T01:39:53.196Z,0.83
2022-10-29T01:42:26.680Z,1.60
2022-10-29T01:45:08.553Z,1.30
2022-10-29T01:47:44.042Z,1.60
2022-10-29T01:50:15.266Z,1.00
2022-10-29T01:52:42.930Z,1.37
2022-10-29T01:55:09.449Z,2.78
2022-10-29T01:57:39.817Z,1.55
2022-10-29T02:00:06.438Z,1.60
2022-10-29T02:03:14.798Z,1.60
2022-10-29T02:06:09.798Z,1.37
2022-10-29T02:08:52.824Z,1.10
2022-10-29T02:11:29.689Z,0.95
2022-10-29T02:14:05.934Z,1.67
2022-10-29T02:16:33.465Z,1.10
2022-10-29T02:19:00.397Z,0.87
2022-10-29T02:21:26.833Z,1.45
2022-10-29T02:23:53.146Z,1.80
2022-10-29T02:26:19.522Z,2.15
2022-10-29T02:28:46.008Z,1.23
2022-10-29T02:31:12.407Z,1.50
2022-10-29T02:33:38.725Z,1.77
2022-10-29T02:36:05.385Z,2.88
2022-10-29T02:38:31.703Z,1.50
2022-10-29T02:40:58.005Z,2.60
2022-10-29T02:43:24.358Z,1.50
2022-10-29T02:45:50.901Z,1.58
2022-10-29T02:48:17.221Z,1.27
2022-10-29T02:50:43.646Z,1.50
2022-10-29T02:53:09.949Z,1.42
2022-10-29T02:55:36.289Z,2.30
2022-10-29T02:58:02.625Z,2.10
2022-10-29T03:00:28.923Z,2.13
2022-10-29T03:02:55.681Z,1.35
2022-10-29T03:05:22.391Z,1.95
2022-10-29T03:07:48.707Z,1.43
2022-10-29T03:10:15.111Z,2.00
2022-10-29T03:12:41.444Z,2.08
2022-10-29T03:15:08.268Z,2.15
2022-10-29T03:17:34.572Z,2.50
2022-10-29T03:20:00.994Z,2.23
2022-10-29T03:22:27.309Z,2.50
2022-10-29T03:24:53.597Z,2.72
2022-10-29T03:27:20.017Z,2.35
2022-10-29T03:29:46.313Z,2.08
2022-10-29T03:32:12.617Z,3.00
2022-10-29T03:34:38.975Z,2.22
2022-10-29T03:37:05.319Z,2.88
2022-10-29T03:39:31.629Z,3.30
2022-10-29T03:41:57.962Z,4.53
2022-10-29T03:44:24.282Z,3.27
2022-10-29T03:46:50.584Z,4.20
2022-10-29T03:49:16.942Z,3.28
2022-10-29T03:51:43.245Z,2.80
2022-10-29T03:54:09.537Z,3.88
2022-10-29T03:56:35.857Z,3.70
2022-10-29T03:59:02.195Z,3.90
2022-10-29T04:01:28.630Z,3.20
2022-10-29T04:03:55.074Z,3.35
2022-10-29T04:06:21.378Z,3.47
2022-10-29T04:08:47.679Z,3.33
2022-10-29T04:11:14.268Z,3.60
2022-10-29T04:13:40.812Z,3.22
2022-10-29T04:16:07.385Z,3.67
2022-10-29T04:18:34.090Z,2.78
2022-10-29T04:29:24.297Z,2.40
2022-10-29T04:31:50.831Z,2.15
2022-10-29T04:34:17.289Z,2.17
2022-10-29T04:36:43.672Z,2.70
2022-10-29T04:39:10.062Z,2.50
2022-10-29T04:41:36.389Z,3.00
2022-10-29T04:44:02.759Z,2.60
2022-10-29T04:46:29.225Z,3.10
2022-10-29T04:48:55.570Z,3.25
2022-10-29T04:51:24.230Z,2.80
2022-10-29T04:53:50.718Z,2.50
2022-10-29T04:56:17.503Z,3.10
2022-10-29T04:58:43.872Z,2.60
2022-10-29T05:01:10.289Z,2.72
2022-10-29T05:03:36.673Z,3.42
2022-10-29T05:06:05.035Z,3.42
2022-10-29T05:08:31.643Z,2.50
2022-10-29T05:10:57.939Z,2.73
2022-10-29T05:13:24.249Z,3.25
2022-10-29T05:15:53.334Z,3.80
2022-10-29T05:18:20.082Z,2.97
2022-10-29T05:20:46.472Z,2.83
2022-10-29T05:23:12.822Z,2.47
2022-10-29T05:25:40.607Z,3.47
2022-10-29T05:28:11.541Z,3.60
2022-10-29T05:30:38.292Z,2.65
2022-10-29T05:33:12.032Z,3.00
2022-10-29T05:35:38.496Z,3.00
2022-10-29T05:38:05.463Z,2.53
2022-10-29T05:40:31.950Z,2.58
2022-10-29T05:42:59.231Z,2.55
2022-10-29T05:45:25.799Z,2.63
2022-10-29T05:47:57.345Z,2.60
2022-10-29T05:50:24.122Z,2.97
2022-10-29T05:52:57.612Z,3.88
2022-10-29T05:55:25.094Z,2.90
2022-10-29T05:58:05.735Z,3.42
2022-10-29T06:00:35.134Z,3.00
2022-10-29T06:03:01.880Z,3.00
2022-10-29T06:05:28.687Z,3.50
2022-10-29T06:07:56.751Z,3.53
2022-10-29T06:10:25.226Z,2.88
2022-10-29T06:12:51.775Z,3.37
2022-10-29T06:15:18.806Z,3.20
2022-10-29T06:17:46.226Z,3.22
2022-10-29T06:20:16.739Z,3.55
2022-10-29T06:22:43.218Z,3.97
2022-10-29T06:25:10.039Z,4.03
2022-10-29T06:27:37.072Z,4.85
2022-10-29T06:30:05.156Z,4.50
2022-10-29T06:32:31.681Z,4.07
2022-10-29T06:34:58.129Z,4.70
2022-10-29T06:37:24.457Z,3.77
2022-10-29T06:39:50.829Z,3.85
2022-10-29T06:42:17.276Z,3.50
2022-10-29T06:44:43.614Z,4.07
2022-10-29T06:47:09.978Z,4.20
2022-10-29T06:49:36.403Z,4.30
2022-10-29T06:52:02.770Z,3.90
2022-10-29T06:54:29.093Z,4.28
2022-10-29T06:56:55.603Z,4.50
2022-10-29T06:59:23.430Z,3.92
2022-10-29T07:01:49.984Z,4.30
2022-10-29T07:04:18.308Z,3.92
2022-10-29T07:06:44.650Z,4.30
2022-10-29T07:09:11.133Z,4.93
2022-10-29T07:11:37.525Z,4.30
2022-10-29T07:14:05.849Z,3.87
2022-10-29T07:16:32.215Z,4.40
2022-10-29T07:18:58.575Z,4.32
2022-10-29T07:21:24.917Z,4.28
2022-10-29T07:23:51.248Z,4.10
2022-10-29T07:26:17.555Z,4.57
2022-10-29T07:28:43.870Z,4.03
2022-10-29T07:31:10.206Z,3.70
2022-10-29T07:33:36.501Z,3.60
2022-10-29T07:36:02.919Z,3.55
2022-10-29T07:38:29.230Z,4.30
2022-10-29T07:40:55.592Z,4.50
2022-10-29T07:43:22.491Z,4.88
2022-10-29T07:45:50.536Z,5.50
2022-10-29T07:48:18.242Z,5.15
2022-10-29T07:50:44.685Z,5.30
2022-10-29T07:53:11.219Z,4.80
2022-10-29T07:55:37.892Z,5.80
2022-10-29T07:58:07.642Z,5.90
2022-10-29T08:00:36.621Z,6.07
2022-10-29T08:03:03.916Z,6.67
2022-10-29T08:05:30.865Z,7.20
2022-10-29T08:07:58.115Z,10.35
2022-10-29T08:10:25.325Z,10.02
2022-10-29T08:12:53.904Z,12.10
2022-10-29T08:15:20.576Z,11.73
2022-10-29T08:17:46.992Z,11.90
2022-10-29T08:20:14.789Z,11.38
2022-10-29T08:22:41.311Z,10.95
2022-10-29T08:25:08.287Z,12.10
2022-10-29T08:27:34.803Z,11.67
2022-10-29T08:30:01.394Z,12.43
2022-10-29T08:32:27.701Z,11.88
2022-10-29T08:34:54.164Z,11.10
2022-10-29T08:37:20.457Z,10.70
2022-10-29T08:39:46.770Z,10.63
2022-10-29T08:42:34.555Z,9.60
2022-10-29T08:45:14.672Z,9.25
2022-10-29T08:47:59.867Z,9.48
2022-10-29T08:50:33.212Z,8.60
2022-10-29T08:55:48.277Z,9.50
2022-10-29T08:58:27.790Z,8.70
2022-10-29T09:00:57.849Z,9.30
2022-10-29T09:03:26.695Z,8.55
2022-10-29T09:06:07.971Z,8.47
2022-10-29T09:08:43.538Z,10.40
2022-10-29T09:11:46.075Z,9.48
2022-10-29T09:14:40.778Z,8.82
2022-10-29T09:17:29.575Z,8.95
2022-10-29T09:20:17.131Z,8.67
2022-10-29T09:23:05.025Z,10.55
2022-10-29T09:25:38.423Z,9.32
2022-10-29T09:28:42.748Z,8.95
2022-10-29T09:31:37.513Z,8.95
2022-10-29T09:34:12.092Z,8.60
2022-10-29T09:36:39.437Z,9.90
2022-10-29T09:39:37.397Z,9.57
2022-10-29T09:42:10.862Z,8.50
2022-10-29T09:44:53.125Z,9.63
2022-10-29T09:47:37.415Z,11.23
2022-10-29T09:50:30.485Z,12.10
2022-10-29T09:52:57.078Z,11.20
2022-10-29T09:55:27.771Z,11.05
2022-10-29T09:57:57.062Z,10.75
2022-10-29T10:00:26.774Z,10.70
2022-10-29T10:03:00.794Z,12.10
2022-10-29T10:05:30.361Z,11.05
2022-10-29T10:08:14.342Z,10.90
2022-10-29T10:11:07.067Z,10.90
2022-10-29T10:13:50.108Z,9.83
2022-10-29T10:16:24.005Z,10.73
2022-10-29T10:18:50.388Z,10.63
2022-10-29T10:21:27.982Z,10.98
2022-10-29T10:23:57.512Z,10.48
2022-10-29T10:26:44.552Z,10.47
2022-10-29T10:29:11.849Z,10.30
2022-10-29T10:31:39.614Z,9.98
2022-10-29T10:34:19.104Z,9.88
2022-10-29T10:37:05.051Z,9.88
2022-10-29T10:39:36.703Z,9.60
2022-10-29T10:42:16.892Z,9.48
2022-10-29T10:44:48.162Z,10.27
2022-10-29T10:47:18.957Z,8.25
2022-10-29T10:49:45.786Z,9.88
2022-10-29T10:52:28.516Z,8.80
2022-10-29T10:54:59.493Z,9.30
2022-10-29T10:57:30.957Z,8.73
2022-10-29T10:59:59.832Z,8.98
2022-10-29T11:02:54.562Z,8.38
2022-10-29T11:05:23.268Z,8.87
2022-10-29T11:08:10.312Z,8.27
2022-10-29T11:10:48.111Z,8.35
2022-10-29T11:13:20.896Z,7.90
2022-10-29T11:16:04.432Z,8.40
2022-10-29T11:18:36.435Z,7.70
2022-10-29T11:21:11.768Z,7.55
2022-10-29T11:23:53.970Z,6.80
2022-10-29T11:26:30.253Z,6.75
2022-10-29T11:29:15.646Z,7.22
2022-10-29T11:32:00.653Z,5.93
2022-10-29T11:34:45.369Z,6.55
2022-10-29T11:37:27.763Z,6.53
2022-10-29T11:40:02.459Z,6.03
2022-10-29T11:42:29.265Z,6.32
2022-10-29T11:44:58.725Z,6.33
2022-10-29T11:47:58.762Z,5.93
2022-10-29T11:50:39.278Z,6.30
2022-10-29T11:53:24.942Z,6.07
2022-10-29T11:56:08.553Z,5.95
2022-10-29T11:58:40.823Z,6.13
2022-10-29T12:01:34.253Z,6.32
2022-10-29T12:04:27.306Z,6.25
2022-10-29T12:07:11.973Z,6.53
2022-10-29T12:09:53.457Z,5.57
2022-10-29T12:12:44.730Z,5.93
2022-10-29T12:15:26.254Z,6.35
2022-10-29T12:18:26.548Z,5.75
2022-10-29T12:21:11.821Z,5.25
2022-10-29T12:24:04.148Z,6.63
2022-10-29T12:26:44.660Z,6.20
2022-10-29T12:29:15.779Z,6.97
2022-10-29T12:32:07.255Z,6.05
2022-10-29T12:34:50.517Z,6.53
2022-10-29T12:37:44.726Z,7.20
2022-10-29T12:40:20.330Z,6.63
2022-10-29T12:42:49.177Z,6.55
2022-10-29T12:46:14.300Z,6.57
2022-10-29T12:48:49.727Z,6.88
2022-10-29T12:51:23.986Z,6.97
2022-10-29T12:54:15.149Z,6.67
2022-10-29T12:56:45.045Z,7.20
2022-10-29T12:59:23.335Z,7.90
2022-10-29T13:05:11.343Z,7.10
2022-10-29T13:07:59.277Z,6.83
2022-10-29T13:10:47.725Z,7.78
2022-10-29T13:13:13.957Z,7.00
2022-10-29T13:15:44.056Z,7.22
2022-10-29T13:18:26.396Z,6.55
2022-10-29T13:20:54.382Z,6.50
2022-10-29T13:23:23.834Z,6.43
2022-10-29T13:25:51.566Z,7.40
2022-10-29T13:28:17.799Z,7.00
2022-10-29T13:30:46.632Z,7.47
2022-10-29T13:33:28.106Z,6.33
2022-10-29T13:36:16.840Z,7.18
2022-10-29T13:39:06.189Z,7.03
2022-10-29T13:41:44.593Z,6.55
2022-10-29T13:44:13.397Z,6.65
2022-10-29T13:47:04.116Z,7.03
2022-10-29T13:49:37.487Z,7.68
2022-10-29T13:52:15.982Z,6.88
2022-10-29T13:54:56.583Z,7.05
2022-10-29T13:57:34.067Z,7.13
2022-10-29T14:00:12.531Z,7.53
2022-10-29T14:02:41.861Z,7.32
2022-10-29T14:05:12.570Z,7.78
2022-10-29T14:07:51.826Z,7.88
2022-10-29T14:10:24.259Z,6.90
2022-10-29T14:12:57.355Z,7.10
2022-10-29T14:15:24.163Z,7.30
2022-10-29T14:17:50.657Z,7.57
2022-10-29T14:20:26.307Z,7.55
2022-10-29T14:22:53.107Z,7.75
2022-10-29T14:25:35.594Z,7.20
2022-10-29T14:28:18.883Z,7.70
2022-10-29T14:30:48.055Z,7.22
2022-10-29T14:33:25.986Z,7.30
2022-10-29T14:36:15.697Z,7.75
2022-10-29T14:38:56.963Z,6.30
2022-10-29T14:41:25.594Z,7.70
2022-10-29T14:44:05.196Z,7.55
2022-10-29T14:46:34.755Z,7.13
2022-10-29T14:49:14.506Z,7.68
2022-10-29T14:51:49.575Z,7.20
2022-10-29T14:54:21.626Z,7.32
2022-10-29T14:56:52.774Z,7.95
2022-10-29T14:59:26.425Z,8.20
2022-10-29T15:02:05.737Z,8.57
2022-10-29T15:05:07.203Z,8.27
2022-10-29T15:07:35.843Z,8.30
2022-10-29T15:10:08.102Z,7.85
2022-10-29T15:12:36.910Z,7.43
2022-10-29T15:15:15.297Z,8.18
2022-10-29T15:17:50.661Z,6.73
2022-10-29T15:20:32.091Z,8.02
2022-10-29T15:22:59.341Z,7.35
2022-10-29T15:25:37.603Z,6.88
2022-10-29T15:28:08.794Z,7.63
2022-10-29T15:30:37.629Z,7.53
2022-10-29T15:33:08.061Z,7.22
2022-10-29T15:35:49.055Z,7.07
2022-10-29T15:38:52.052Z,6.75
2022-10-29T15:41:39.017Z,6.55
2022-10-29T15:44:40.190Z,7.47
2022-10-29T15:47:28.254Z,6.45
2022-10-29T15:49:55.120Z,6.78
2022-10-29T15:52:26.812Z,6.57
2022-10-29T15:54:53.164Z,7.53
2022-10-29T15:57:19.470Z,6.90
2022-10-29T15:59:45.975Z,6.10
2022-10-29T16:02:14.223Z,6.32
2022-10-29T16:04:40.738Z,6.45
2022-10-29T16:07:11.540Z,6.10
2022-10-29T16:09:39.219Z,6.67
2022-10-29T16:12:05.698Z,6.68
2022-10-29T16:14:31.991Z,6.40
2022-10-29T16:16:58.304Z,6.35
2022-10-29T16:19:24.641Z,6.10
2022-10-29T16:21:50.965Z,6.53
2022-10-29T16:24:17.438Z,7.07
2022-10-29T16:26:43.839Z,6.80
2022-10-29T16:29:10.606Z,7.88
2022-10-29T16:31:37.050Z,7.20
2022-10-29T16:34:05.006Z,6.20
2022-10-29T16:36:31.306Z,6.63
2022-10-29T16:38:57.630Z,6.90
2022-10-29T16:41:23.969Z,6.90
2022-10-29T16:43:50.315Z,7.07
2022-10-29T16:46:17.170Z,7.07
2022-10-29T16:48:43.596Z,6.28
2022-10-29T16:51:09.924Z,6.63
2022-10-29T16:53:36.527Z,6.88
2022-10-29T16:56:03.400Z,6.68
2022-10-29T16:58:29.731Z,6.93
2022-10-29T17:01:07.746Z,6.63
2022-10-29T17:03:35.195Z,6.57
2022-10-29T17:06:07.440Z,6.50
2022-10-29T17:08:34.858Z,7.30
2022-10-29T17:11:02.402Z,6.63
2022-10-29T17:13:28.787Z,7.72
2022-10-29T17:15:55.408Z,6.93
2022-10-29T17:18:23.001Z,7.32
2022-10-29T17:20:59.978Z,6.97
2022-10-29T17:23:26.844Z,7.27
2022-10-29T17:25:54.669Z,7.38
2022-10-29T17:28:22.315Z,7.45
2022-10-29T17:30:49.086Z,6.55
2022-10-29T17:33:16.222Z,6.50
2022-10-29T17:35:43.381Z,6.97
2022-10-29T17:38:10.618Z,6.97
2022-10-29T17:40:37.025Z,6.97
2022-10-29T17:43:03.430Z,7.53
2022-10-29T17:45:29.795Z,6.38
2022-10-29T17:47:57.784Z,6.40
2022-10-29T17:50:25.734Z,7.20
2022-10-29T17:52:53.257Z,6.35
2022-10-29T17:55:19.743Z,7.25
2022-10-29T17:57:46.121Z,6.60
2022-10-29T18:00:12.937Z,6.70
2022-10-29T18:02:39.278Z,6.88
2022-10-29T18:05:05.802Z,7.82
2022-10-29T18:07:32.128Z,7.15
2022-10-29T18:09:58.441Z,7.78
2022-10-29T18:12:24.837Z,6.43
2022-10-29T18:14:51.129Z,6.22
2022-10-29T18:17:17.495Z,7.65
2022-10-29T18:19:43.935Z,6.80
2022-10-29T18:22:10.304Z,7.25
2022-10-29T18:24:36.611Z,6.80
2022-10-29T18:27:02.965Z,6.88
2022-10-29T18:29:29.277Z,7.57
2022-10-29T18:31:55.591Z,6.85
2022-10-29T18:34:22.030Z,7.68
2022-10-29T18:36:48.370Z,7.00
2022-10-29T18:39:14.663Z,6.20
2022-10-29T18:41:41.065Z,6.75
2022-10-29T18:44:08.450Z,6.60
2022-10-29T18:46:34.750Z,7.68
2022-10-29T18:49:01.091Z,6.70
2022-10-29T18:51:30.059Z,6.38
2022-10-29T18:54:00.316Z,9.73
2022-10-29T18:56:28.219Z,6.15
2022-10-29T18:58:55.569Z,6.43
2022-10-29T19:01:27.895Z,6.47
2022-10-29T19:03:56.842Z,6.43
2022-10-29T19:06:25.307Z,7.30
2022-10-29T19:08:51.687Z,9.30
2022-10-29T19:11:23.567Z,6.55
2022-10-29T19:13:54.707Z,8.53
2022-10-29T19:16:21.829Z,7.57
2022-10-29T19:18:48.537Z,7.82
2022-10-29T19:21:16.917Z,7.50
2022-10-29T19:23:43.963Z,7.43
2022-10-29T19:26:18.213Z,8.33
2022-10-29T19:28:46.352Z,7.18
2022-10-29T19:31:17.736Z,8.10
2022-10-29T19:33:51.581Z,8.05
2022-10-29T19:36:18.718Z,7.13
2022-10-29T19:38:45.200Z,7.57
2022-10-29T19:41:12.296Z,7.63
2022-10-29T19:43:39.278Z,6.97
2022-10-29T19:46:07.859Z,7.22
2022-10-29T19:48:34.535Z,7.50
2022-10-29T19:51:00.857Z,8.30
2022-10-29T19:53:27.450Z,8.48
2022-10-29T19:55:54.322Z,8.63
2022-10-29T19:58:23.256Z,8.05
2022-10-29T20:00:49.752Z,8.88
2022-10-29T20:03:17.282Z,8.20
2022-10-29T20:05:44.367Z,7.97
2022-10-29T20:08:15.677Z,7.75
2022-10-29T20:10:43.227Z,6.95
2022-10-29T20:13:09.549Z,7.93
2022-10-29T20:15:38.461Z,7.93
2022-10-29T20:18:04.995Z,7.60
2022-10-29T20:20:31.300Z,8.38
2022-10-29T20:22:59.519Z,8.90
2022-10-29T20:25:26.424Z,8.05
2022-10-29T20:27:52.759Z,7.53
2022-10-29T20:30:19.058Z,8.65
2022-10-29T20:32:45.401Z,7.95
2022-10-29T20:35:11.710Z,8.13
2022-10-29T20:37:38.013Z,8.43
2022-10-29T20:40:05.389Z,7.87
2022-10-29T20:42:31.743Z,8.00
2022-10-29T20:44:58.030Z,8.93
2022-10-29T20:47:24.371Z,8.02
2022-10-29T20:49:50.740Z,8.60
2022-10-29T20:52:17.059Z,8.07
2022-10-29T20:54:43.432Z,8.15
2022-10-29T20:57:09.819Z,8.40
2022-10-29T20:59:36.117Z,8.68
2022-10-29T21:02:02.845Z,7.82
2022-10-29T21:04:29.260Z,7.80
2022-10-29T21:06:55.574Z,8.15
2022-10-29T21:09:22.749Z,7.70
2022-10-29T21:11:49.070Z,8.02
2022-10-29T21:14:15.402Z,8.63
2022-10-29T21:16:41.749Z,7.73
2022-10-29T21:19:08.194Z,8.10
2022-10-29T21:21:34.551Z,8.13
2022-10-29T21:24:00.928Z,7.68
2022-10-29T21:26:28.220Z,7.82
2022-10-29T21:28:55.116Z,7.93
2022-10-29T21:31:22.938Z,7.93
2022-10-29T21:33:54.110Z,7.32
2022-10-29T21:36:21.166Z,6.88
2022-10-29T21:38:48.307Z,7.53
2022-10-29T21:41:15.465Z,8.13
2022-10-29T21:43:41.762Z,7.55
2022-10-29T21:46:08.163Z,8.20
2022-10-29T21:48:34.654Z,7.85
2022-10-29T21:51:05.769Z,8.82
2022-10-29T21:53:32.607Z,8.50
2022-10-29T21:56:01.079Z,8.10
2022-10-29T21:58:27.909Z,7.90
2022-10-29T22:01:16.782Z,8.40
2022-10-29T22:03:44.918Z,8.95
2022-10-29T22:06:22.317Z,7.47
2022-10-29T22:08:56.472Z,8.18
2022-10-29T22:11:23.563Z,7.43
2022-10-29T22:13:51.109Z,7.60
2022-10-29T22:16:17.698Z,8.20
2022-10-29T22:18:44.374Z,7.57
2022-10-29T22:21:21.546Z,7.80
2022-10-29T22:23:58.049Z,7.10
2022-10-29T22:26:27.382Z,7.35
2022-10-29T22:28:53.721Z,7.60
2022-10-29T22:31:21.468Z,8.07
2022-10-29T22:33:48.241Z,7.40
2022-10-29T22:36:22.931Z,6.85
2022-10-29T22:38:54.091Z,6.63
2022-10-29T22:41:20.409Z,6.45
2022-10-29T22:43:46.819Z,7.07
2022-10-29T22:46:15.275Z,6.38
2022-10-29T22:48:43.486Z,6.63
2022-10-29T22:51:16.605Z,6.68
2022-10-29T22:53:42.987Z,6.25
2022-10-29T22:56:23.541Z,6.03
2022-10-29T22:58:50.154Z,5.55
2022-10-29T23:01:19.054Z,6.53
2022-10-29T23:03:46.148Z,6.55
2022-10-29T23:06:15.821Z,6.00
2022-10-29T23:08:44.275Z,6.60
2022-10-29T23:11:21.408Z,5.60
2022-10-29T23:13:59.806Z,5.90
2022-10-29T23:16:29.278Z,5.13
2022-10-29T23:19:02.033Z,5.45
2022-10-29T23:21:28.936Z,5.60
2022-10-29T23:23:55.787Z,5.32
2022-10-29T23:26:23.797Z,6.13
2022-10-29T23:28:50.227Z,6.03
2022-10-29T23:31:23.750Z,6.45
2022-10-29T23:33:52.958Z,5.50
2022-10-29T23:36:21.654Z,5.10
2022-10-29T23:38:48.724Z,6.55
2022-10-29T23:41:15.285Z,5.97
2022-10-29T23:43:41.612Z,5.68
2022-10-29T23:46:08.162Z,5.30
2022-10-29T23:48:34.530Z,5.68
2022-10-29T23:51:00.882Z,5.05
2022-10-29T23:53:27.213Z,6.95
2022-10-29T23:55:53.583Z,5.78
2022-10-29T23:58:19.998Z,5.80
